ENEV/EVE METAR and TAF weather

Enter ICAO airport designator
Station Type Date Time Source
ENEV METAR 2018/06/25 02:20 UTC NOAA

ENEV 250220Z AUTO 21005KT 9999 -DZ OVC026/// 08/08 Q1010 RMK WIND 1400FT 14009KT


Station Type Date Time Source
ENEV Decoded METAR 2018/06/25 02:20 UTC NOAA

Evenes, Norway (ENEV) 68-31N 016-41E 26M
Jun 24, 2018 - 10:20 PM EDT / 2018.06.25 0220 UTC
Wind: from the SSW (210 degrees) at 6 MPH (5 KT):0
Visibility: greater than 7 mile(s):0
Sky conditions: overcast
Weather: light drizzle
Temperature: 46 F (8 C)
Dew Point: 46 F (8 C)
Relative Humidity: 100%
Pressure (altimeter): 29.83 in. Hg (1010 hPa)
ob: ENEV 250220Z AUTO 21005KT 9999 -DZ OVC026/// 08/08 Q1010 RMK WIND 1400FT 14009KT
cycle: 2

Station Type Date Time Source
ENEV TAF 2010/02/05 07:50 UTC NOAA

METAR ENEV 050750Z 14007KT 9999 FEW040 SCT055 M04/M09 Q1019


Example: see airport list